createdAt,value
2019-03-16T00:03:27.777Z,0.95
2019-03-16T00:06:17.221Z,0.50
2019-03-16T00:09:07.308Z,0.72
2019-03-16T00:11:37.282Z,0.50
2019-03-16T00:14:26.567Z,0.68
2019-03-16T00:17:23.248Z,0.40
2019-03-16T00:20:25.294Z,0.55
2019-03-16T00:23:08.139Z,0.60
2019-03-16T00:25:57.521Z,0.60
2019-03-16T00:28:27.332Z,0.85
2019-03-16T00:31:16.723Z,0.50
2019-03-16T00:34:06.271Z,0.50
2019-03-16T00:36:55.850Z,0.70
2019-03-16T00:39:45.258Z,0.55
2019-03-16T00:42:34.569Z,0.60
2019-03-16T00:45:23.882Z,0.60
2019-03-16T00:48:13.265Z,0.70
2019-03-16T00:50:43.342Z,0.70
2019-03-16T00:53:32.776Z,0.50
2019-03-16T00:56:22.392Z,0.50
2019-03-16T00:59:11.726Z,0.55
2019-03-16T01:02:01.228Z,0.70
2019-03-16T01:04:31.141Z,0.80
2019-03-16T01:07:20.429Z,0.62
2019-03-16T01:10:09.854Z,0.72
2019-03-16T01:12:39.771Z,0.60
2019-03-16T01:15:29.128Z,0.82
2019-03-16T01:17:58.989Z,0.78
2019-03-16T01:20:48.375Z,0.60
2019-03-16T01:23:18.217Z,0.60
2019-03-16T01:25:48.160Z,0.50
2019-03-16T01:28:19.263Z,0.70
2019-03-16T01:31:08.564Z,0.65
2019-03-16T01:33:57.827Z,0.50
2019-03-16T01:36:47.202Z,0.53
2019-03-16T01:39:17.038Z,0.50
2019-03-16T01:41:46.922Z,0.40
2019-03-16T01:44:36.236Z,0.70
2019-03-16T01:47:06.111Z,0.80
2019-03-16T01:49:36.127Z,0.60
2019-03-16T01:52:06.066Z,0.70
2019-03-16T01:54:55.328Z,0.75
2019-03-16T01:57:25.233Z,0.60
2019-03-16T02:00:14.818Z,0.70
2019-03-16T02:03:05.671Z,0.60
2019-03-16T02:05:35.534Z,0.40
2019-03-16T02:08:24.903Z,0.50
2019-03-16T02:10:54.927Z,0.60
2019-03-16T02:13:44.663Z,0.88
2019-03-16T02:16:14.622Z,1.00
2019-03-16T02:18:44.422Z,0.70
2019-03-16T02:21:14.439Z,0.50
2019-03-16T02:23:44.406Z,0.70
2019-03-16T02:26:33.696Z,0.57
2019-03-16T02:29:23.039Z,0.50
2019-03-16T02:32:12.600Z,0.60
2019-03-16T02:34:42.553Z,0.57
2019-03-16T02:37:57.212Z,0.42
2019-03-16T02:40:27.257Z,0.40
2019-03-16T02:42:58.521Z,0.60
2019-03-16T02:48:04.512Z,0.70
2019-03-16T02:50:53.807Z,0.62
2019-03-16T02:53:43.159Z,0.40
2019-03-16T02:56:32.487Z,0.40
2019-03-16T02:59:22.068Z,0.40
2019-03-16T03:02:11.556Z,0.50
2019-03-16T03:05:00.829Z,0.45
2019-03-16T03:07:31.594Z,0.42
2019-03-16T03:10:21.217Z,0.50
2019-03-16T03:12:51.266Z,0.40
2019-03-16T03:15:21.175Z,0.30
2019-03-16T03:17:51.390Z,0.40
2019-03-16T03:20:21.283Z,0.60
2019-03-16T03:23:04.895Z,0.40
2019-03-16T03:25:54.258Z,0.40
2019-03-16T03:28:43.556Z,0.47
2019-03-16T03:31:33.047Z,0.50
2019-03-16T03:34:03.198Z,0.50
2019-03-16T03:36:52.779Z,0.40
2019-03-16T03:39:42.097Z,0.60
2019-03-16T03:42:31.482Z,0.47
2019-03-16T03:45:02.096Z,0.40
2019-03-16T03:47:31.956Z,0.50
2019-03-16T03:50:02.069Z,0.40
2019-03-16T03:55:46.364Z,0.50
2019-03-16T03:58:16.841Z,0.70
2019-03-16T04:00:47.201Z,0.80
2019-03-16T04:03:17.274Z,0.60
2019-03-16T04:05:47.539Z,0.80
2019-03-16T04:08:37.581Z,0.70
2019-03-16T04:11:27.029Z,0.60
2019-03-16T04:13:56.843Z,0.70
2019-03-16T04:16:26.711Z,0.50
2019-03-16T04:18:56.670Z,0.60
2019-03-16T04:21:46.406Z,0.50
2019-03-16T04:24:16.471Z,0.72
2019-03-16T04:26:46.961Z,0.50
2019-03-16T04:29:36.304Z,0.57
2019-03-16T04:32:25.839Z,0.60
2019-03-16T04:35:15.212Z,0.55
2019-03-16T04:37:45.249Z,0.60
2019-03-16T04:40:15.129Z,0.60
2019-03-16T04:42:45.040Z,0.70
2019-03-16T04:45:34.600Z,0.50
2019-03-16T04:48:04.506Z,0.70
2019-03-16T04:50:54.206Z,0.60
2019-03-16T04:53:27.682Z,0.50
2019-03-16T04:55:57.467Z,0.70
2019-03-16T04:58:47.353Z,0.68
2019-03-16T05:01:20.488Z,1.20
2019-03-16T05:04:12.272Z,0.80
2019-03-16T05:07:01.610Z,0.60
2019-03-16T05:09:51.438Z,0.88
2019-03-16T05:12:21.397Z,0.70
2019-03-16T05:14:51.415Z,0.50
2019-03-16T05:17:41.091Z,0.60
2019-03-16T05:20:31.141Z,0.80
2019-03-16T05:23:01.523Z,0.88
2019-03-16T05:25:50.894Z,0.50
2019-03-16T05:28:40.266Z,0.70
2019-03-16T05:31:29.592Z,1.20
2019-03-16T05:34:18.990Z,0.60
2019-03-16T05:37:08.678Z,0.85
2019-03-16T05:42:32.222Z,0.80
2019-03-16T05:45:21.617Z,0.70
2019-03-16T05:47:51.826Z,0.82
2019-03-16T05:50:41.243Z,0.70
2019-03-16T05:53:30.616Z,0.98
2019-03-16T05:56:19.966Z,0.80
2019-03-16T05:58:49.770Z,0.85
2019-03-16T06:01:39.856Z,0.85
2019-03-16T06:04:29.222Z,0.80
2019-03-16T06:07:18.835Z,1.27
2019-03-16T06:10:08.541Z,0.90
2019-03-16T06:12:57.832Z,1.20
2019-03-16T06:15:47.249Z,1.12
2019-03-16T06:18:36.847Z,0.75
2019-03-16T06:21:26.575Z,0.95
2019-03-16T06:24:08.615Z,1.10
2019-03-16T06:26:38.489Z,1.30
2019-03-16T06:29:28.098Z,1.65
2019-03-16T06:32:17.609Z,1.10
2019-03-16T06:34:47.690Z,1.20
2019-03-16T06:39:52.251Z,1.20
2019-03-16T06:42:22.163Z,1.00
2019-03-16T06:44:52.022Z,1.17
2019-03-16T06:47:23.145Z,1.27
2019-03-16T06:50:11.666Z,1.32
2019-03-16T06:52:41.661Z,1.30
2019-03-16T06:55:31.160Z,1.47
2019-03-16T06:58:20.591Z,1.40
2019-03-16T07:01:10.053Z,1.55
2019-03-16T07:03:39.972Z,1.27
2019-03-16T07:06:29.322Z,1.52
2019-03-16T07:08:59.249Z,1.80
2019-03-16T07:11:29.281Z,1.90
2019-03-16T07:14:00.649Z,1.82
2019-03-16T07:16:30.794Z,2.12
2019-03-16T07:19:00.746Z,2.27
2019-03-16T07:21:30.990Z,1.55
2019-03-16T07:24:00.983Z,1.87
2019-03-16T07:26:30.953Z,1.32
2019-03-16T07:29:00.918Z,1.10
2019-03-16T07:31:32.081Z,2.50
2019-03-16T07:34:04.676Z,1.60
2019-03-16T07:36:36.197Z,1.37
2019-03-16T07:39:28.427Z,2.10
2019-03-16T07:42:17.809Z,1.62
2019-03-16T07:47:43.137Z,1.90
2019-03-16T07:50:32.979Z,1.10
2019-03-16T07:55:55.749Z,1.57
2019-03-16T07:58:25.883Z,1.20
2019-03-16T08:00:58.609Z,1.80
2019-03-16T08:06:19.087Z,1.60
2019-03-16T08:08:49.215Z,1.77
2019-03-16T08:11:38.998Z,1.60
2019-03-16T08:14:09.332Z,1.82
2019-03-16T08:16:59.089Z,1.70
2019-03-16T08:19:30.107Z,1.30
2019-03-16T08:22:23.546Z,1.60
2019-03-16T08:25:15.251Z,1.72
2019-03-16T08:27:58.672Z,1.42
2019-03-16T08:30:31.058Z,2.25
2019-03-16T08:33:01.212Z,1.90
2019-03-16T08:35:31.716Z,1.70
2019-03-16T08:41:02.292Z,1.40
2019-03-16T08:43:53.320Z,1.30
2019-03-16T08:46:44.014Z,1.30
2019-03-16T08:49:33.444Z,1.30
2019-03-16T08:52:04.294Z,1.40
2019-03-16T08:54:37.838Z,1.50
2019-03-16T08:57:28.918Z,1.67
2019-03-16T09:00:18.415Z,1.40
2019-03-16T09:03:08.026Z,1.07
2019-03-16T09:05:38.234Z,1.37
2019-03-16T09:08:30.316Z,1.65
2019-03-16T09:11:20.579Z,1.05
2019-03-16T09:13:51.198Z,1.37
2019-03-16T09:16:22.001Z,1.35
2019-03-16T09:18:52.878Z,1.40
2019-03-16T09:21:23.357Z,1.15
2019-03-16T09:23:56.014Z,1.37
2019-03-16T09:26:26.212Z,1.37
2019-03-16T09:29:15.601Z,1.50
2019-03-16T09:31:45.673Z,1.40
2019-03-16T09:34:35.573Z,1.65
2019-03-16T09:37:25.057Z,1.90
2019-03-16T09:40:14.668Z,1.70
2019-03-16T09:43:04.119Z,1.40
2019-03-16T09:45:34.195Z,1.20
2019-03-16T09:48:04.511Z,1.57
2019-03-16T09:50:54.269Z,1.70
2019-03-16T09:53:44.356Z,1.50
2019-03-16T09:56:14.686Z,1.70
2019-03-16T09:58:44.693Z,1.30
2019-03-16T10:01:22.919Z,3.10
2019-03-16T10:03:53.801Z,1.62
2019-03-16T10:06:24.009Z,1.40
2019-03-16T10:09:13.970Z,1.70
2019-03-16T10:12:03.433Z,1.80
2019-03-16T10:14:53.075Z,1.70
2019-03-16T10:17:42.487Z,1.80
2019-03-16T10:20:31.984Z,1.82
2019-03-16T10:23:14.519Z,1.80
2019-03-16T10:26:04.216Z,1.57
2019-03-16T10:28:53.846Z,2.27
2019-03-16T10:31:24.989Z,1.50
2019-03-16T10:34:09.696Z,1.65
2019-03-16T10:36:59.478Z,1.57
2019-03-16T10:39:49.313Z,1.60
2019-03-16T10:43:01.406Z,1.52
2019-03-16T10:45:31.685Z,1.25
2019-03-16T10:48:21.345Z,1.30
2019-03-16T10:51:05.334Z,1.10
2019-03-16T10:53:36.013Z,0.95
2019-03-16T10:56:07.465Z,1.20
2019-03-16T10:58:38.342Z,1.20
2019-03-16T11:01:28.287Z,1.35
2019-03-16T11:04:17.628Z,1.20
2019-03-16T11:07:07.840Z,1.98
2019-03-16T11:09:38.317Z,1.35
2019-03-16T11:12:08.314Z,1.52
2019-03-16T11:14:58.116Z,1.42
2019-03-16T11:17:29.792Z,1.20
2019-03-16T11:19:59.982Z,1.77
2019-03-16T11:25:20.132Z,1.30
2019-03-16T11:27:51.062Z,1.20
2019-03-16T11:30:25.438Z,1.55
2019-03-16T11:41:08.297Z,1.12
2019-03-16T11:43:49.335Z,1.42
2019-03-16T11:46:20.091Z,1.30
2019-03-16T11:49:10.323Z,0.90
2019-03-16T11:51:40.684Z,1.10
2019-03-16T11:54:15.258Z,1.12
2019-03-16T11:56:45.453Z,1.05
2019-03-16T11:59:35.421Z,1.05
2019-03-16T12:02:07.077Z,1.00
2019-03-16T12:04:38.030Z,1.10
2019-03-16T12:13:17.318Z,1.57
2019-03-16T12:19:21.010Z,0.95
2019-03-16T12:21:51.679Z,1.65
2019-03-16T12:24:34.750Z,0.95
2019-03-16T12:27:24.645Z,1.10
2019-03-16T12:30:14.582Z,0.93
2019-03-16T12:33:04.414Z,1.10
2019-03-16T12:35:54.381Z,0.98
2019-03-16T12:38:44.375Z,1.12
2019-03-16T12:41:53.914Z,0.90
2019-03-16T12:45:10.036Z,1.10
2019-03-16T12:50:46.262Z,1.42
2019-03-16T12:53:20.080Z,0.90
2019-03-16T12:55:50.791Z,0.98
2019-03-16T12:58:41.352Z,0.90
2019-03-16T13:01:12.738Z,0.80
2019-03-16T13:04:22.396Z,1.47
2019-03-16T13:09:54.492Z,1.10
2019-03-16T13:12:25.236Z,0.95
2019-03-16T13:20:53.953Z,1.10
2019-03-16T13:47:48.450Z,1.07
2019-03-16T13:53:18.501Z,1.20
2019-03-16T13:55:49.195Z,0.80
2019-03-16T13:58:19.984Z,1.25
2019-03-16T14:06:30.030Z,1.10
2019-03-16T14:11:41.229Z,1.10
2019-03-16T14:14:13.426Z,1.47
2019-03-16T14:17:08.870Z,1.10
2019-03-16T17:43:48.663Z,2.08
2019-03-16T17:46:42.210Z,1.22
2019-03-16T17:51:51.189Z,1.70
2019-03-16T17:54:22.934Z,1.80
2019-03-16T17:59:54.913Z,1.42
2019-03-16T18:02:51.291Z,2.12
2019-03-16T18:05:29.284Z,2.00
2019-03-16T18:12:19.180Z,2.22
2019-03-16T18:14:50.307Z,2.27
2019-03-16T18:17:21.103Z,2.15
2019-03-16T18:20:00.454Z,2.47
2019-03-16T18:22:35.620Z,1.92
2019-03-16T18:25:08.340Z,1.57
2019-03-16T18:27:42.440Z,2.62
2019-03-16T18:30:14.707Z,1.90
2019-03-16T18:32:45.487Z,14.28
2019-03-16T18:35:16.095Z,8.60
2019-03-16T18:37:47.294Z,4.45
2019-03-16T18:40:17.876Z,3.33
2019-03-16T18:42:48.324Z,2.85
2019-03-16T18:45:19.746Z,2.55
2019-03-16T18:47:54.677Z,2.52
2019-03-16T18:50:25.307Z,2.05
2019-03-16T18:52:55.788Z,2.20
2019-03-16T18:55:25.920Z,3.12
2019-03-16T18:58:01.004Z,2.80
2019-03-16T19:00:33.425Z,3.20
2019-03-16T19:03:03.675Z,2.60
2019-03-16T19:05:35.834Z,3.72
2019-03-16T19:10:42.125Z,2.75
2019-03-16T19:13:12.684Z,3.35
2019-03-16T19:15:45.606Z,2.20
2019-03-16T19:18:18.065Z,2.92
2019-03-16T19:20:49.944Z,3.40
2019-03-16T19:25:54.461Z,2.92
2019-03-16T19:28:24.919Z,2.87
2019-03-16T19:30:56.594Z,1.82
2019-03-16T19:33:27.171Z,2.92
2019-03-16T19:36:02.466Z,2.65
2019-03-16T19:38:36.942Z,1.90
2019-03-16T19:41:08.013Z,2.15
2019-03-16T19:43:40.707Z,2.00
2019-03-16T19:46:12.840Z,2.10
2019-03-16T19:48:46.979Z,1.92
2019-03-16T19:51:20.487Z,2.15
2019-03-16T19:53:53.458Z,2.47
2019-03-16T19:56:27.119Z,2.17
2019-03-16T19:59:03.474Z,2.10
2019-03-16T20:01:34.654Z,2.02
2019-03-16T20:04:05.395Z,1.92
2019-03-16T20:06:43.921Z,1.60
2019-03-16T20:09:27.736Z,2.30
2019-03-16T20:37:43.944Z,1.65
2019-03-16T20:40:16.171Z,1.80
2019-03-16T20:42:47.381Z,1.90
2019-03-16T20:45:19.085Z,1.50
2019-03-16T20:47:50.472Z,1.98
2019-03-16T20:50:21.309Z,1.60
2019-03-16T20:52:55.233Z,1.70
2019-03-16T20:55:26.109Z,1.65
2019-03-16T20:57:58.240Z,2.00
2019-03-16T21:00:32.637Z,1.50
2019-03-16T21:03:15.512Z,2.00
2019-03-16T21:05:38.260Z,1.85
2019-03-16T21:08:10.407Z,1.70
2019-03-16T21:10:47.611Z,1.00
2019-03-16T21:13:14.452Z,1.60
2019-03-16T21:15:49.387Z,1.30
2019-03-16T21:18:20.100Z,1.65
2019-03-16T21:20:52.265Z,1.37
2019-03-16T21:23:23.015Z,1.98
2019-03-16T21:25:55.515Z,2.12
2019-03-16T21:28:26.283Z,1.70
2019-03-16T21:31:08.946Z,1.82
2019-03-16T21:33:39.839Z,1.32
2019-03-16T21:36:11.765Z,1.30
2019-03-16T21:38:42.363Z,1.12
2019-03-16T21:41:37.182Z,1.50
2019-03-16T21:44:09.748Z,3.33
2019-03-16T21:46:48.718Z,2.37
2019-03-16T21:50:18.966Z,2.75
2019-03-16T21:53:43.628Z,2.22
2019-03-16T21:56:18.402Z,1.57
2019-03-16T21:58:53.748Z,1.30
2019-03-16T22:26:17.311Z,1.52
2019-03-16T22:32:27.640Z,1.30
2019-03-16T22:34:58.199Z,1.35
2019-03-16T22:37:42.022Z,1.12
2019-03-16T22:40:12.263Z,1.30
2019-03-16T22:42:45.644Z,1.30
2019-03-16T22:45:17.436Z,1.50
2019-03-16T22:47:47.683Z,1.22
2019-03-16T22:52:56.482Z,1.50
2019-03-16T22:55:27.342Z,1.32
2019-03-16T22:57:58.126Z,1.35
2019-03-16T23:00:52.466Z,1.27
2019-03-16T23:06:10.928Z,1.50
2019-03-16T23:08:50.421Z,1.42
2019-03-16T23:11:23.793Z,1.50
2019-03-16T23:13:54.997Z,1.70
2019-03-16T23:16:27.798Z,1.80
2019-03-16T23:18:58.391Z,1.87
2019-03-16T23:21:28.770Z,1.85
2019-03-16T23:23:59.323Z,2.42
2019-03-16T23:26:38.095Z,4.37
2019-03-16T23:29:10.595Z,2.70
2019-03-16T23:31:40.783Z,2.70
2019-03-16T23:34:19.163Z,2.20
2019-03-16T23:36:45.964Z,2.35
2019-03-16T23:39:19.104Z,2.10
2019-03-16T23:42:07.069Z,2.05
2019-03-16T23:44:37.246Z,1.90
2019-03-16T23:47:07.754Z,2.25
2019-03-16T23:49:37.954Z,1.90
2019-03-16T23:52:36.785Z,2.42
2019-03-16T23:55:06.848Z,2.45
2019-03-16T23:57:37.152Z,2.75
